Time;durP1;ratioP1;P1;durP2;ratioP2;P2;SDS_P1;SDS_P2;PMS_P1;PMS_P2;Temp;Humidity;BMP_temperature;BMP_pressure;BME280_temperature;BME280_humidity;BME280_pressure;Samples;Min_cycle;Max_cycle;Signal;HPM_P1;HPM_P2
2022/04/09 00:00:37;;;;;;;0.80;0.80;;;;;;;;;;4957650;28;20228;-87
2022/04/09 00:03:05;;;;;;;0.80;0.80;;;;;;;;;;4957094;28;20201;-87
2022/04/09 00:05:33;;;;;;;0.70;0.70;;;;;;;;;;4957767;28;20235;-87
2022/04/09 00:08:02;;;;;;;0.80;0.80;;;;;;;;;;4957763;28;20205;-87
2022/04/09 00:10:30;;;;;;;0.77;0.77;;;;;;;;;;4957204;28;20197;-86
2022/04/09 00:12:59;;;;;;;0.80;0.80;;;;;;;;;;4957770;28;20276;-87
2022/04/09 00:15:29;;;;;;;0.80;0.80;;;;;;;;;;4974692;28;20221;-86
2022/04/09 00:17:57;;;;;;;0.80;0.80;;;;;;;;;;4974616;28;20241;-86
2022/04/09 00:20:26;;;;;;;0.80;0.80;;;;;;;;;;4957490;28;20213;-86
2022/04/09 00:22:54;;;;;;;0.80;0.80;;;;;;;;;;4957081;28;20267;-86
2022/04/09 00:25:24;;;;;;;0.80;0.80;;;;;;;;;;4974512;28;20204;-86
2022/04/09 00:27:52;;;;;;;0.70;0.70;;;;;;;;;;4957383;28;20236;-86
2022/04/09 00:30:21;;;;;;;0.80;0.80;;;;;;;;;;4956919;28;20204;-86
2022/04/09 00:32:52;;;;;;;0.80;0.80;;;;;;;;;;4947109;29;20233;-86
2022/04/09 00:35:20;;;;;;;0.80;0.80;;;;;;;;;;4937817;29;20256;-86
2022/04/09 00:37:49;;;;;;;0.70;0.70;;;;;;;;;;4938141;29;20208;-88
2022/04/09 00:40:19;;;;;;;0.80;0.80;;;;;;;;;;4938297;29;20229;-87
2022/04/09 00:42:47;;;;;;;1.53;1.53;;;;;;;;;;4954045;28;20221;-87
2022/04/09 00:45:16;;;;;;;0.80;0.80;;;;;;;;;;4938141;29;20393;-87
2022/04/09 00:47:44;;;;;;;0.77;0.77;;;;;;;;;;4941856;29;20210;-87
2022/04/09 00:50:14;;;;;;;0.80;0.80;;;;;;;;;;4941811;29;20296;-87
2022/04/09 00:52:46;;;;;;;0.80;0.80;;;;;;;;;;4957285;28;20198;-87
2022/04/09 00:55:15;;;;;;;0.80;0.80;;;;;;;;;;4957800;28;20221;-87
2022/04/09 00:57:46;;;;;;;0.80;0.80;;;;;;;;;;4941247;29;20293;-87
2022/04/09 01:00:15;;;;;;;0.80;0.80;;;;;;;;;;4957096;28;20217;-87
2022/04/09 01:02:44;;;;;;;0.80;0.80;;;;;;;;;;4958319;28;20208;-87
2022/04/09 01:05:15;;;;;;;0.80;0.80;;;;;;;;;;4957422;28;20248;-87
2022/04/09 01:07:43;;;;;;;0.80;0.80;;;;;;;;;;4957415;28;20217;-87
2022/04/09 01:10:12;;;;;;;0.80;0.80;;;;;;;;;;4941710;29;20218;-87
2022/04/09 01:12:40;;;;;;;0.80;0.80;;;;;;;;;;4957502;28;20213;-87
2022/04/09 01:15:09;;;;;;;0.80;0.80;;;;;;;;;;4957115;28;20206;-87
2022/04/09 01:17:38;;;;;;;0.80;0.80;;;;;;;;;;4940994;28;20245;-87
2022/04/09 01:20:18;;;;;;;0.80;0.80;;;;;;;;;;4940935;29;20540;-87
2022/04/09 01:22:48;;;;;;;0.80;0.80;;;;;;;;;;4958093;28;20204;-87
2022/04/09 01:25:16;;;;;;;0.80;0.80;;;;;;;;;;4957024;28;20209;-87
2022/04/09 01:27:46;;;;;;;0.80;0.80;;;;;;;;;;4940706;29;20216;-87
2022/04/09 01:30:15;;;;;;;0.70;0.70;;;;;;;;;;4957755;28;20217;-87
2022/04/09 01:32:43;;;;;;;0.70;0.70;;;;;;;;;;4949959;28;20212;-87
2022/04/09 01:35:12;;;;;;;0.70;0.70;;;;;;;;;;4960069;28;20250;-86
2022/04/09 01:37:40;;;;;;;0.70;0.70;;;;;;;;;;4960165;28;20206;-87
2022/04/09 01:40:11;;;;;;;0.80;0.80;;;;;;;;;;4960162;28;20205;-86
2022/04/09 01:42:39;;;;;;;0.80;0.80;;;;;;;;;;4977097;28;20224;-86
2022/04/09 01:45:09;;;;;;;0.73;0.73;;;;;;;;;;4959995;28;20240;-87
2022/04/09 01:47:41;;;;;;;0.70;0.70;;;;;;;;;;4959874;28;20214;-86
2022/04/09 01:50:10;;;;;;;0.70;0.70;;;;;;;;;;4976870;28;20212;-86
2022/04/09 01:52:39;;;;;;;0.70;0.70;;;;;;;;;;4959557;28;20257;-86
2022/04/09 01:55:08;;;;;;;0.80;0.80;;;;;;;;;;4959494;28;20252;-86
2022/04/09 01:57:38;;;;;;;0.80;0.80;;;;;;;;;;4958387;28;20201;-85
2022/04/09 02:00:08;;;;;;;0.80;0.80;;;;;;;;;;4959650;28;20201;-86
2022/04/09 02:02:36;;;;;;;0.70;0.70;;;;;;;;;;4959541;28;20236;-86
2022/04/09 02:05:06;;;;;;;0.70;0.70;;;;;;;;;;4959620;28;20225;-86
2022/04/09 02:07:35;;;;;;;0.70;0.70;;;;;;;;;;4959457;28;20228;-86
2022/04/09 02:10:03;;;;;;;0.70;0.70;;;;;;;;;;4959721;28;20208;-86
2022/04/09 02:12:32;;;;;;;0.70;0.70;;;;;;;;;;4959275;28;20201;-86
2022/04/09 02:15:05;;;;;;;0.70;0.70;;;;;;;;;;4959429;28;20212;-86
2022/04/09 02:17:33;;;;;;;0.77;0.77;;;;;;;;;;4975775;28;20253;-86
2022/04/09 02:20:01;;;;;;;4.73;1.90;;;;;;;;;;4959451;28;20205;-86
2022/04/09 02:22:35;;;;;;;3.77;2.30;;;;;;;;;;4959349;28;20244;-86
2022/04/09 02:25:03;;;;;;;6.83;2.97;;;;;;;;;;4959282;28;20212;-86
2022/04/09 02:27:32;;;;;;;6.57;3.43;;;;;;;;;;4958948;28;20205;-86
2022/04/09 02:30:01;;;;;;;8.63;3.67;;;;;;;;;;4959099;28;20204;-86
2022/04/09 02:32:30;;;;;;;2.93;2.17;;;;;;;;;;4971310;28;20253;-86
2022/04/09 02:35:00;;;;;;;8.90;2.07;;;;;;;;;;4948218;29;20261;-86
2022/04/09 02:37:29;;;;;;;2.20;1.50;;;;;;;;;;4956828;28;20251;-87
2022/04/09 02:39:57;;;;;;;16.47;3.40;;;;;;;;;;4956971;28;20213;-86
2022/04/09 02:42:26;;;;;;;6.47;2.53;;;;;;;;;;4946874;28;20232;-87
2022/04/09 02:44:55;;;;;;;9.40;3.10;;;;;;;;;;4959206;28;20208;-86
2022/04/09 02:47:23;;;;;;;6.23;2.27;;;;;;;;;;4959074;28;20288;-86
2022/04/09 02:49:53;;;;;;;9.87;2.67;;;;;;;;;;4959285;28;20208;-86
2022/04/09 02:52:21;;;;;;;12.13;2.90;;;;;;;;;;4956954;28;20208;-87
2022/04/09 02:54:50;;;;;;;6.13;2.13;;;;;;;;;;4955561;29;20212;-87
2022/04/09 02:57:18;;;;;;;2.60;2.07;;;;;;;;;;4939071;29;20227;-87
2022/04/09 02:59:47;;;;;;;9.10;2.30;;;;;;;;;;4955406;29;20229;-87
2022/04/09 03:02:15;;;;;;;6.37;3.07;;;;;;;;;;4955331;29;20221;-87
2022/04/09 03:04:44;;;;;;;3.07;1.70;;;;;;;;;;4939367;29;20205;-87
2022/04/09 03:07:13;;;;;;;7.43;2.47;;;;;;;;;;4939968;28;20209;-87
2022/04/09 03:09:42;;;;;;;0.80;0.80;;;;;;;;;;4958187;28;20240;-87
2022/04/09 03:12:10;;;;;;;0.80;0.80;;;;;;;;;;4974188;28;20200;-87
2022/04/09 03:14:39;;;;;;;0.80;0.80;;;;;;;;;;4958366;28;20205;-87
2022/04/09 03:17:07;;;;;;;0.80;0.80;;;;;;;;;;4958049;28;20219;-87
2022/04/09 03:19:36;;;;;;;4.33;1.87;;;;;;;;;;4954826;29;20241;-87
2022/04/09 03:22:04;;;;;;;0.80;0.80;;;;;;;;;;4955220;29;20232;-87
2022/04/09 03:24:34;;;;;;;0.90;0.90;;;;;;;;;;4955537;29;20273;-87
2022/04/09 03:27:03;;;;;;;0.70;0.70;;;;;;;;;;4955638;29;20209;-87
2022/04/09 03:29:31;;;;;;;0.80;0.80;;;;;;;;;;4954379;29;20206;-87
2022/04/09 03:32:00;;;;;;;5.70;1.50;;;;;;;;;;4954735;29;20202;-86
2022/04/09 03:34:29;;;;;;;8.20;3.07;;;;;;;;;;4970931;28;20205;-86
2022/04/09 03:36:57;;;;;;;15.60;3.20;;;;;;;;;;4954493;29;20261;-86
2022/04/09 03:39:26;;;;;;;5.33;2.20;;;;;;;;;;4954557;29;20209;-86
2022/04/09 03:41:55;;;;;;;4.33;2.17;;;;;;;;;;4949308;28;20225;-86
2022/04/09 03:44:44;;;;;;;5.87;1.93;;;;;;;;;;4951301;29;20206;-86
2022/04/09 03:47:13;;;;;;;6.13;2.40;;;;;;;;;;4935276;29;20233;-86
2022/04/09 03:49:41;;;;;;;4.97;2.17;;;;;;;;;;4936528;29;20302;-85
2022/04/09 03:52:10;;;;;;;7.67;2.40;;;;;;;;;;4935407;29;20206;-86
2022/04/09 03:54:38;;;;;;;9.53;2.13;;;;;;;;;;4951062;29;20210;-86
2022/04/09 03:57:09;;;;;;;8.97;2.63;;;;;;;;;;4934971;29;20202;-86
2022/04/09 03:59:37;;;;;;;5.50;3.03;;;;;;;;;;4951124;29;20218;-86
2022/04/09 04:02:06;;;;;;;7.50;2.47;;;;;;;;;;4935220;29;20218;-86
2022/04/09 04:04:35;;;;;;;3.17;1.87;;;;;;;;;;4951103;29;20202;-85
2022/04/09 04:07:03;;;;;;;7.03;2.73;;;;;;;;;;4934975;29;20250;-86
2022/04/09 04:09:32;;;;;;;19.90;2.57;;;;;;;;;;4936020;29;20287;-86
2022/04/09 04:12:00;;;;;;;6.50;2.53;;;;;;;;;;4951097;29;20205;-86
2022/04/09 04:14:30;;;;;;;6.93;1.80;;;;;;;;;;4935127;29;20207;-85
2022/04/09 04:16:58;;;;;;;2.73;2.10;;;;;;;;;;4934956;29;20301;-85
2022/04/09 04:19:27;;;;;;;2.83;1.27;;;;;;;;;;4934625;29;20245;-86
2022/04/09 04:21:55;;;;;;;2.50;2.13;;;;;;;;;;4938029;29;20312;-85
2022/04/09 04:24:24;;;;;;;7.10;2.77;;;;;;;;;;4938805;29;20206;-86
2022/04/09 04:26:53;;;;;;;8.30;3.27;;;;;;;;;;4938954;29;20210;-86
2022/04/09 04:29:21;;;;;;;10.03;3.30;;;;;;;;;;4939012;29;20210;-86
2022/04/09 04:31:51;;;;;;;5.90;2.13;;;;;;;;;;4938947;29;20234;-86
2022/04/09 04:34:20;;;;;;;7.77;3.33;;;;;;;;;;4938503;29;20202;-86
2022/04/09 04:36:48;;;;;;;8.63;2.67;;;;;;;;;;4954740;29;20314;-86
2022/04/09 04:39:17;;;;;;;6.10;2.53;;;;;;;;;;4938742;29;20198;-86
2022/04/09 04:41:45;;;;;;;7.30;2.17;;;;;;;;;;4942767;29;20213;-86
2022/04/09 04:44:13;;;;;;;6.20;2.37;;;;;;;;;;4957686;29;20221;-86
2022/04/09 04:46:42;;;;;;;10.90;3.63;;;;;;;;;;4957634;29;20198;-86
2022/04/09 04:49:12;;;;;;;7.27;2.90;;;;;;;;;;4957648;29;20288;-86
2022/04/09 04:51:40;;;;;;;6.00;2.07;;;;;;;;;;4957884;29;20210;-86
2022/04/09 04:54:08;;;;;;;9.23;2.30;;;;;;;;;;4958100;29;20239;-86
2022/04/09 04:56:37;;;;;;;6.47;2.53;;;;;;;;;;4958521;29;20204;-86
2022/04/09 04:59:07;;;;;;;3.63;1.40;;;;;;;;;;4957746;29;20289;-86
2022/04/09 05:01:40;;;;;;;12.43;2.80;;;;;;;;;;4957410;29;20212;-86
2022/04/09 05:04:09;;;;;;;10.03;2.87;;;;;;;;;;4957352;29;20222;-86
2022/04/09 05:06:39;;;;;;;4.10;1.93;;;;;;;;;;4957326;29;20210;-86
2022/04/09 05:09:07;;;;;;;2.50;1.63;;;;;;;;;;4957278;29;20229;-86
2022/04/09 05:11:36;;;;;;;4.00;1.40;;;;;;;;;;4957027;29;20201;-86
2022/04/09 05:14:04;;;;;;;2.10;1.10;;;;;;;;;;4957441;29;20202;-86
2022/04/09 05:16:33;;;;;;;2.43;1.20;;;;;;;;;;4957366;29;20206;-86
2022/04/09 05:19:01;;;;;;;4.80;4.40;;;;;;;;;;4956852;29;20245;-86
2022/04/09 05:21:30;;;;;;;4.20;1.97;;;;;;;;;;4957805;29;20261;-86
2022/04/09 05:24:00;;;;;;;4.70;1.47;;;;;;;;;;4956960;29;20222;-86
2022/04/09 05:26:28;;;;;;;4.67;1.97;;;;;;;;;;4957003;29;20209;-86
2022/04/09 05:28:57;;;;;;;5.13;1.80;;;;;;;;;;4957070;29;20209;-86
2022/04/09 05:31:27;;;;;;;5.93;1.27;;;;;;;;;;4956774;28;20206;-86
2022/04/09 05:33:56;;;;;;;7.57;2.30;;;;;;;;;;4958080;29;20208;-86
2022/04/09 05:36:24;;;;;;;7.40;2.60;;;;;;;;;;4957049;29;20202;-86
2022/04/09 05:38:53;;;;;;;7.20;2.87;;;;;;;;;;4956927;29;20202;-86
2022/04/09 05:41:23;;;;;;;4.67;2.83;;;;;;;;;;4955607;29;20229;-86
2022/04/09 05:43:51;;;;;;;5.73;1.87;;;;;;;;;;4953642;28;20230;-86
2022/04/09 05:46:22;;;;;;;3.33;1.73;;;;;;;;;;4953853;28;20215;-86
2022/04/09 05:48:51;;;;;;;7.53;1.77;;;;;;;;;;4937894;29;20210;-86
2022/04/09 05:51:19;;;;;;;3.90;1.90;;;;;;;;;;4953609;28;20274;-86
2022/04/09 05:53:47;;;;;;;7.33;1.80;;;;;;;;;;4937356;29;20267;-86
2022/04/09 05:56:16;;;;;;;4.70;2.03;;;;;;;;;;4953765;28;20202;-86
2022/04/09 05:58:46;;;;;;;8.83;2.50;;;;;;;;;;4937713;29;20239;-86
2022/04/09 06:01:34;;;;;;;4.80;2.23;;;;;;;;;;4953196;28;20221;-86
2022/04/09 06:04:07;;;;;;;2.17;1.60;;;;;;;;;;4938250;29;20214;-86
2022/04/09 06:06:37;;;;;;;3.80;2.23;;;;;;;;;;4953266;28;20219;-86
2022/04/09 06:09:06;;;;;;;4.47;2.57;;;;;;;;;;4953093;28;20210;-86
2022/04/09 06:11:34;;;;;;;8.20;2.50;;;;;;;;;;4937397;29;20214;-86
2022/04/09 06:14:04;;;;;;;4.27;2.03;;;;;;;;;;4938704;29;20200;-87
2022/04/09 06:16:35;;;;;;;6.43;2.30;;;;;;;;;;4953058;28;20303;-86
2022/04/09 06:19:03;;;;;;;4.40;2.20;;;;;;;;;;4952853;28;20293;-86
2022/04/09 06:21:32;;;;;;;2.07;1.60;;;;;;;;;;4936951;29;20214;-86
2022/04/09 06:24:01;;;;;;;6.40;1.90;;;;;;;;;;4936794;29;20246;-87
2022/04/09 06:26:30;;;;;;;10.97;1.67;;;;;;;;;;4937242;29;20269;-86
2022/04/09 06:28:58;;;;;;;4.97;1.77;;;;;;;;;;4936856;29;20206;-86
2022/04/09 06:31:28;;;;;;;3.57;1.87;;;;;;;;;;4937372;29;20211;-86
2022/04/09 06:33:57;;;;;;;3.33;1.80;;;;;;;;;;4952876;28;20199;-86
2022/04/09 06:36:25;;;;;;;3.40;1.80;;;;;;;;;;4953365;28;20215;-86
2022/04/09 06:38:54;;;;;;;5.13;1.93;;;;;;;;;;4937037;29;20212;-86
2022/04/09 06:41:22;;;;;;;6.17;2.07;;;;;;;;;;4952686;28;20223;-86
2022/04/09 06:43:52;;;;;;;8.80;2.00;;;;;;;;;;4952211;28;20290;-86
2022/04/09 06:46:20;;;;;;;7.20;3.60;;;;;;;;;;4936595;29;20215;-86
2022/04/09 06:48:50;;;;;;;6.50;2.47;;;;;;;;;;4952631;29;20201;-86
2022/04/09 06:51:19;;;;;;;7.23;2.40;;;;;;;;;;4937704;29;20289;-86
2022/04/09 06:53:47;;;;;;;8.10;2.47;;;;;;;;;;4936872;29;20235;-86
2022/04/09 06:56:16;;;;;;;4.17;2.10;;;;;;;;;;4936755;29;20195;-88
2022/04/09 06:58:44;;;;;;;1.00;1.00;;;;;;;;;;4956745;29;20207;-87
2022/04/09 07:01:13;;;;;;;1.07;0.97;;;;;;;;;;4953796;29;20210;-87
2022/04/09 07:03:42;;;;;;;6.50;2.10;;;;;;;;;;4952432;29;20214;-87
2022/04/09 07:06:13;;;;;;;0.63;0.63;;;;;;;;;;4936937;29;20222;-87
2022/04/09 07:08:41;;;;;;;0.70;0.70;;;;;;;;;;4952406;29;20202;-87
2022/04/09 07:11:10;;;;;;;0.70;0.70;;;;;;;;;;4936264;29;20211;-87
2022/04/09 07:13:38;;;;;;;0.70;0.70;;;;;;;;;;4952408;29;20250;-87
2022/04/09 07:16:07;;;;;;;0.70;0.70;;;;;;;;;;4952569;29;20199;-87
2022/04/09 07:18:37;;;;;;;0.70;0.70;;;;;;;;;;4951527;29;20242;-86
2022/04/09 07:21:05;;;;;;;0.70;0.70;;;;;;;;;;4951790;29;20210;-86
2022/04/09 07:23:35;;;;;;;0.70;0.70;;;;;;;;;;4936303;29;20210;-86
2022/04/09 07:26:03;;;;;;;0.63;0.63;;;;;;;;;;4936905;29;20206;-86
2022/04/09 07:28:32;;;;;;;0.70;0.70;;;;;;;;;;4935935;29;20202;-86
2022/04/09 07:31:00;;;;;;;0.70;0.70;;;;;;;;;;4952391;29;20217;-86
2022/04/09 07:33:29;;;;;;;0.70;0.70;;;;;;;;;;4952044;29;20213;-86
2022/04/09 07:35:57;;;;;;;0.60;0.60;;;;;;;;;;4936006;29;20218;-87
2022/04/09 07:38:26;;;;;;;7.03;2.47;;;;;;;;;;4935938;29;20202;-85
2022/04/09 07:40:56;;;;;;;5.43;1.77;;;;;;;;;;4951433;29;20206;-88
2022/04/09 07:43:24;;;;;;;2.53;1.33;;;;;;;;;;4951745;29;20217;-87
2022/04/09 07:45:53;;;;;;;0.70;0.70;;;;;;;;;;4935285;29;20222;-87
2022/04/09 07:48:22;;;;;;;0.70;0.70;;;;;;;;;;4935512;29;20238;-86
2022/04/09 07:50:50;;;;;;;0.70;0.70;;;;;;;;;;4935587;29;20206;-86
2022/04/09 07:53:19;;;;;;;0.70;0.70;;;;;;;;;;4936510;29;20216;-86
2022/04/09 07:55:47;;;;;;;0.70;0.70;;;;;;;;;;4935535;29;20194;-86
2022/04/09 07:58:17;;;;;;;0.70;0.70;;;;;;;;;;4936143;29;20206;-86
2022/04/09 08:00:45;;;;;;;0.70;0.70;;;;;;;;;;4935206;29;20206;-86
2022/04/09 08:03:15;;;;;;;0.70;0.70;;;;;;;;;;4935380;29;20198;-86
2022/04/09 08:05:44;;;;;;;0.70;0.70;;;;;;;;;;4936246;29;20234;-86
2022/04/09 08:08:12;;;;;;;0.70;0.70;;;;;;;;;;4935334;29;20214;-86
2022/04/09 08:10:41;;;;;;;0.67;0.67;;;;;;;;;;4935136;29;20225;-86
2022/04/09 08:13:09;;;;;;;0.70;0.70;;;;;;;;;;4951302;29;20208;-86
2022/04/09 08:15:39;;;;;;;0.70;0.70;;;;;;;;;;4934801;29;20194;-86
2022/04/09 08:18:09;;;;;;;0.70;0.70;;;;;;;;;;4934981;29;20241;-87
2022/04/09 08:20:58;;;;;;;0.70;0.70;;;;;;;;;;4935083;29;20206;-87
2022/04/09 08:23:26;;;;;;;0.70;0.70;;;;;;;;;;4951611;29;20206;-87
2022/04/09 08:25:56;;;;;;;0.70;0.70;;;;;;;;;;4935555;29;20249;-87
2022/04/09 08:28:26;;;;;;;0.70;0.70;;;;;;;;;;4935550;29;20439;-87
2022/04/09 08:30:56;;;;;;;0.67;0.67;;;;;;;;;;4935293;29;20265;-87
2022/04/09 08:33:25;;;;;;;0.70;0.70;;;;;;;;;;4935069;29;20211;-86
2022/04/09 08:35:54;;;;;;;0.70;0.70;;;;;;;;;;4935040;29;20202;-85
2022/04/09 08:38:22;;;;;;;0.70;0.70;;;;;;;;;;4934975;29;20210;-85
2022/04/09 08:40:51;;;;;;;0.70;0.70;;;;;;;;;;4935032;29;20210;-85
2022/04/09 08:43:20;;;;;;;0.70;0.70;;;;;;;;;;4951711;29;20210;-85
2022/04/09 08:45:48;;;;;;;0.70;0.70;;;;;;;;;;4954012;29;20245;-85
2022/04/09 08:48:22;;;;;;;0.60;0.60;;;;;;;;;;4953919;29;20214;-86
2022/04/09 08:50:50;;;;;;;0.70;0.70;;;;;;;;;;4954952;29;20208;-85
2022/04/09 08:53:19;;;;;;;0.67;0.67;;;;;;;;;;4953844;29;20215;-85
2022/04/09 08:55:48;;;;;;;0.70;0.70;;;;;;;;;;4953937;29;20201;-85
2022/04/09 08:58:16;;;;;;;0.60;0.60;;;;;;;;;;4953378;29;20221;-85
2022/04/09 09:00:46;;;;;;;0.60;0.60;;;;;;;;;;4954158;29;20213;-85
2022/04/09 09:03:15;;;;;;;8.80;2.33;;;;;;;;;;4953704;29;20205;-86
2022/04/09 09:05:52;;;;;;;8.97;2.10;;;;;;;;;;4953541;29;20307;-86
2022/04/09 09:08:36;;;;;;;4.70;4.30;;;;;;;;;;4957428;29;20209;-86
2022/04/09 09:11:05;;;;;;;3.27;1.53;;;;;;;;;;4957415;29;20293;-86
2022/04/09 09:13:46;;;;;;;4.20;1.77;;;;;;;;;;4958039;29;20208;-86
2022/04/09 09:16:22;;;;;;;4.93;3.00;;;;;;;;;;4957204;29;20205;-86
2022/04/09 09:18:51;;;;;;;6.17;2.03;;;;;;;;;;4957070;29;20237;-86
2022/04/09 09:21:23;;;;;;;5.87;2.23;;;;;;;;;;4956940;29;20209;-86
2022/04/09 09:23:52;;;;;;;3.90;1.90;;;;;;;;;;4957441;29;20234;-86
2022/04/09 09:26:21;;;;;;;1.80;1.57;;;;;;;;;;4956712;29;20214;-86
2022/04/09 09:28:59;;;;;;;4.73;1.40;;;;;;;;;;4957334;29;20205;-86
2022/04/09 09:31:41;;;;;;;5.63;1.97;;;;;;;;;;4956675;29;20218;-86
2022/04/09 09:34:10;;;;;;;5.00;1.90;;;;;;;;;;4956908;29;20216;-86
2022/04/09 09:36:40;;;;;;;5.33;2.00;;;;;;;;;;4956968;29;20263;-86
2022/04/09 09:39:09;;;;;;;5.53;1.87;;;;;;;;;;4956668;29;20203;-87
2022/04/09 09:41:48;;;;;;;4.73;2.03;;;;;;;;;;4956527;29;20218;-87
2022/04/09 09:44:19;;;;;;;7.03;2.30;;;;;;;;;;4956598;29;20206;-87
2022/04/09 09:46:49;;;;;;;9.37;1.53;;;;;;;;;;4956622;29;20234;-87
2022/04/09 09:49:18;;;;;;;1.30;1.20;;;;;;;;;;4957156;29;20211;-87
2022/04/09 09:52:02;;;;;;;3.00;1.67;;;;;;;;;;4956923;29;20214;-87
2022/04/09 09:54:31;;;;;;;3.20;1.00;;;;;;;;;;4957795;29;20203;-88
2022/04/09 09:57:00;;;;;;;11.00;1.83;;;;;;;;;;4957798;29;20195;-87
2022/04/09 09:59:30;;;;;;;4.00;1.87;;;;;;;;;;4973184;28;20211;-88
2022/04/09 10:01:59;;;;;;;4.83;1.87;;;;;;;;;;4956496;29;20206;-88
2022/04/09 10:04:28;;;;;;;4.07;1.60;;;;;;;;;;4955964;29;20241;-87
2022/04/09 10:06:58;;;;;;;4.73;1.73;;;;;;;;;;4956204;29;20228;-87
2022/04/09 10:09:29;;;;;;;0.70;0.70;;;;;;;;;;4956274;29;20202;-87
2022/04/09 10:11:59;;;;;;;0.60;0.60;;;;;;;;;;4956391;29;20213;-87
2022/04/09 10:14:30;;;;;;;6.70;1.83;;;;;;;;;;4956444;29;20212;-87
2022/04/09 10:16:58;;;;;;;4.50;1.43;;;;;;;;;;4956229;29;20207;-87
2022/04/09 10:19:27;;;;;;;1.87;1.70;;;;;;;;;;4955260;28;20325;-87
2022/04/09 10:21:57;;;;;;;0.60;0.60;;;;;;;;;;4956436;29;20236;-87
2022/04/09 10:24:28;;;;;;;0.60;0.60;;;;;;;;;;4955885;29;20217;-87
2022/04/09 10:26:58;;;;;;;0.60;0.60;;;;;;;;;;4972200;28;20221;-87
2022/04/09 10:29:27;;;;;;;0.70;0.70;;;;;;;;;;4957830;29;20202;-87
2022/04/09 10:31:55;;;;;;;0.60;0.60;;;;;;;;;;4955878;29;20206;-87
2022/04/09 10:34:24;;;;;;;2.70;2.60;;;;;;;;;;4955576;29;20216;-88
2022/04/09 10:37:02;;;;;;;0.63;0.63;;;;;;;;;;4956709;29;20201;-87
2022/04/09 10:39:42;;;;;;;0.70;0.70;;;;;;;;;;4972184;28;20206;-87
2022/04/09 10:42:11;;;;;;;0.70;0.70;;;;;;;;;;4948336;29;20263;-87
2022/04/09 10:44:55;;;;;;;0.50;0.50;;;;;;;;;;4937463;29;20261;-87
2022/04/09 10:47:23;;;;;;;0.70;0.70;;;;;;;;;;4954157;29;20237;-87
2022/04/09 10:50:11;;;;;;;0.70;0.70;;;;;;;;;;4953508;29;20207;-87
2022/04/09 10:52:41;;;;;;;0.60;0.60;;;;;;;;;;4936799;29;20232;-87
2022/04/09 10:55:31;;;;;;;0.70;0.70;;;;;;;;;;4937603;29;20212;-87
2022/04/09 10:58:10;;;;;;;0.60;0.60;;;;;;;;;;4936532;29;20237;-87
2022/04/09 11:00:43;;;;;;;0.63;0.63;;;;;;;;;;4937276;29;20203;-87
2022/04/09 11:03:17;;;;;;;0.70;0.70;;;;;;;;;;4936428;29;20206;-87
2022/04/09 11:05:45;;;;;;;0.70;0.70;;;;;;;;;;4937104;29;20274;-86
2022/04/09 11:08:17;;;;;;;0.70;0.70;;;;;;;;;;4935955;29;20207;-86
2022/04/09 11:10:46;;;;;;;0.60;0.60;;;;;;;;;;4936034;29;20265;-86
2022/04/09 11:13:18;;;;;;;0.60;0.60;;;;;;;;;;4952257;29;20210;-85
2022/04/09 11:15:55;;;;;;;0.60;0.60;;;;;;;;;;4935992;29;20207;-86
2022/04/09 11:18:24;;;;;;;0.60;0.60;;;;;;;;;;4935605;29;20282;-86
2022/04/09 11:20:54;;;;;;;0.60;0.60;;;;;;;;;;4935569;29;20210;-85
2022/04/09 11:23:25;;;;;;;3.90;2.50;;;;;;;;;;4951888;29;20211;-85
2022/04/09 11:25:53;;;;;;;3.17;1.80;;;;;;;;;;4935923;29;20207;-85
2022/04/09 11:28:23;;;;;;;3.40;2.33;;;;;;;;;;4935980;29;20206;-85
2022/04/09 11:30:53;;;;;;;1.93;1.07;;;;;;;;;;4935770;29;20206;-85
2022/04/09 11:33:22;;;;;;;2.30;1.53;;;;;;;;;;4935404;29;20257;-85
2022/04/09 11:35:50;;;;;;;1.93;1.70;;;;;;;;;;4935622;29;20213;-85
2022/04/09 11:38:19;;;;;;;6.43;1.67;;;;;;;;;;4935608;29;20206;-85
2022/04/09 11:40:47;;;;;;;1.90;1.43;;;;;;;;;;4951787;29;20300;-86
2022/04/09 11:43:17;;;;;;;1.73;1.50;;;;;;;;;;4951799;29;20217;-85
2022/04/09 11:45:47;;;;;;;3.77;2.13;;;;;;;;;;4955530;29;20218;-86
2022/04/09 11:48:17;;;;;;;2.53;2.30;;;;;;;;;;4954304;29;20206;-86
2022/04/09 11:50:46;;;;;;;1.23;1.07;;;;;;;;;;4954467;29;20212;-86
2022/04/09 11:53:15;;;;;;;3.93;1.37;;;;;;;;;;4954534;29;20301;-85
2022/04/09 11:55:45;;;;;;;4.67;2.13;;;;;;;;;;4955428;29;20208;-86
2022/04/09 11:58:14;;;;;;;7.07;1.40;;;;;;;;;;4970658;28;20225;-86
2022/04/09 12:00:45;;;;;;;2.00;1.73;;;;;;;;;;4970324;28;20205;-86
2022/04/09 12:03:15;;;;;;;2.23;1.77;;;;;;;;;;4954620;28;20202;-87
2022/04/09 12:05:46;;;;;;;3.03;1.90;;;;;;;;;;4954573;29;20219;-86
2022/04/09 12:08:17;;;;;;;1.10;1.00;;;;;;;;;;4954010;29;20277;-86
2022/04/09 12:10:53;;;;;;;6.97;2.33;;;;;;;;;;4954352;29;20207;-86
2022/04/09 12:13:26;;;;;;;4.60;1.93;;;;;;;;;;4954573;29;20233;-86
2022/04/09 12:15:54;;;;;;;5.30;2.20;;;;;;;;;;4955427;29;20212;-86
2022/04/09 12:18:28;;;;;;;8.00;1.93;;;;;;;;;;4953964;29;20239;-87
2022/04/09 12:20:57;;;;;;;7.23;2.07;;;;;;;;;;4954007;29;20298;-87
2022/04/09 12:23:32;;;;;;;3.00;1.10;;;;;;;;;;4954298;29;20212;-87
2022/04/09 12:26:00;;;;;;;4.97;2.47;;;;;;;;;;4954210;29;20208;-87
2022/04/09 12:28:32;;;;;;;8.80;2.73;;;;;;;;;;4954295;29;20225;-87
2022/04/09 12:31:03;;;;;;;5.67;1.93;;;;;;;;;;4970502;28;20216;-87
2022/04/09 12:33:32;;;;;;;5.40;1.50;;;;;;;;;;4954435;29;20251;-87
2022/04/09 12:36:08;;;;;;;4.70;1.33;;;;;;;;;;4955681;29;20205;-87
2022/04/09 12:38:38;;;;;;;4.80;2.40;;;;;;;;;;4970212;28;20231;-87
2022/04/09 12:41:07;;;;;;;6.43;2.10;;;;;;;;;;4971182;28;20231;-87
2022/04/09 12:43:37;;;;;;;7.63;2.53;;;;;;;;;;4955171;28;20208;-87
2022/04/09 12:46:06;;;;;;;4.53;2.13;;;;;;;;;;4939432;29;20212;-87
2022/04/09 12:48:40;;;;;;;2.00;1.63;;;;;;;;;;4938990;29;20343;-87
2022/04/09 12:51:09;;;;;;;2.43;1.43;;;;;;;;;;4955138;29;20288;-87
2022/04/09 12:53:37;;;;;;;4.33;2.03;;;;;;;;;;4939762;29;20211;-87
2022/04/09 12:56:06;;;;;;;1.60;1.50;;;;;;;;;;4940435;29;20203;-87
2022/04/09 12:58:35;;;;;;;9.30;1.80;;;;;;;;;;4938654;29;20216;-87
2022/04/09 13:01:04;;;;;;;4.20;1.57;;;;;;;;;;4940431;29;20205;-88
2022/04/09 13:03:32;;;;;;;4.20;1.63;;;;;;;;;;4939819;28;20224;-87
2022/04/09 13:06:02;;;;;;;8.93;2.60;;;;;;;;;;4938600;29;20244;-88
2022/04/09 13:08:31;;;;;;;4.60;2.20;;;;;;;;;;4938573;29;20221;-88
2022/04/09 13:11:00;;;;;;;1.83;1.53;;;;;;;;;;4938301;29;20210;-87
2022/04/09 13:13:28;;;;;;;1.30;1.20;;;;;;;;;;4938540;29;20221;-87
2022/04/09 13:15:57;;;;;;;4.30;2.37;;;;;;;;;;4938538;29;20278;-87
2022/04/09 13:18:25;;;;;;;4.37;1.40;;;;;;;;;;4938082;29;20306;-87
2022/04/09 13:20:54;;;;;;;12.87;2.13;;;;;;;;;;4938963;29;20216;-87
2022/04/09 13:23:24;;;;;;;2.17;1.60;;;;;;;;;;4938656;29;20217;-87
2022/04/09 13:25:53;;;;;;;3.23;1.70;;;;;;;;;;4939324;29;20196;-88
2022/04/09 13:28:24;;;;;;;11.13;2.93;;;;;;;;;;4938510;29;20229;-87
2022/04/09 13:30:53;;;;;;;7.10;2.33;;;;;;;;;;4939590;28;20209;-88
2022/04/09 13:33:22;;;;;;;6.23;2.57;;;;;;;;;;4938590;29;20214;-87
2022/04/09 13:35:50;;;;;;;3.27;1.63;;;;;;;;;;4938195;29;20215;-87
2022/04/09 13:38:19;;;;;;;5.90;2.03;;;;;;;;;;4938388;29;20237;-87
2022/04/09 13:40:49;;;;;;;3.90;2.27;;;;;;;;;;4954544;29;20210;-87
2022/04/09 13:43:18;;;;;;;7.03;1.83;;;;;;;;;;4954642;29;20212;-87
2022/04/09 13:45:46;;;;;;;4.20;1.80;;;;;;;;;;4957291;29;20208;-87
2022/04/09 13:48:16;;;;;;;6.70;1.97;;;;;;;;;;4958391;29;20217;-88
2022/04/09 13:50:44;;;;;;;4.33;1.97;;;;;;;;;;4973725;28;20204;-87
2022/04/09 13:53:14;;;;;;;4.33;1.50;;;;;;;;;;4957084;28;20242;-87
2022/04/09 13:55:45;;;;;;;4.13;1.47;;;;;;;;;;4958697;29;20216;-87
2022/04/09 13:58:16;;;;;;;1.70;1.40;;;;;;;;;;4973089;28;20202;-88
2022/04/09 14:00:44;;;;;;;4.90;2.40;;;;;;;;;;4956868;29;20209;-87
2022/04/09 14:03:12;;;;;;;5.03;3.00;;;;;;;;;;4956892;29;20215;-87
2022/04/09 14:05:41;;;;;;;6.87;3.17;;;;;;;;;;4957426;29;20325;-87
2022/04/09 14:08:09;;;;;;;4.50;2.13;;;;;;;;;;4975047;28;20247;-88
2022/04/09 14:10:38;;;;;;;1.43;1.27;;;;;;;;;;4958090;29;20204;-88
2022/04/09 14:13:06;;;;;;;2.77;2.10;;;;;;;;;;4957238;29;20205;-87
2022/04/09 14:15:36;;;;;;;12.47;1.83;;;;;;;;;;4956961;29;20293;-87
2022/04/09 14:18:05;;;;;;;2.13;1.37;;;;;;;;;;4959426;28;20244;-88
2022/04/09 14:20:33;;;;;;;3.00;2.23;;;;;;;;;;4977353;28;20205;-87
2022/04/09 14:23:03;;;;;;;4.07;1.53;;;;;;;;;;4960680;28;20208;-87
2022/04/09 14:25:32;;;;;;;3.87;1.80;;;;;;;;;;4977428;28;20197;-87
2022/04/09 14:28:02;;;;;;;5.10;1.87;;;;;;;;;;4960641;28;20220;-87
2022/04/09 14:30:30;;;;;;;3.77;2.10;;;;;;;;;;4961440;28;20200;-87
2022/04/09 14:33:00;;;;;;;3.43;1.50;;;;;;;;;;4960527;28;20212;-87
2022/04/09 14:35:29;;;;;;;2.87;1.67;;;;;;;;;;4976910;28;20215;-87
2022/04/09 14:37:57;;;;;;;5.17;1.83;;;;;;;;;;4959517;28;20399;-87
2022/04/09 14:40:26;;;;;;;4.37;1.97;;;;;;;;;;4976508;28;20203;-87
2022/04/09 14:42:56;;;;;;;7.93;1.90;;;;;;;;;;4959117;28;20209;-87
2022/04/09 14:45:29;;;;;;;5.57;2.80;;;;;;;;;;4959107;28;20253;-87
2022/04/09 14:47:58;;;;;;;8.27;2.73;;;;;;;;;;4975850;28;20224;-88
2022/04/09 14:50:27;;;;;;;9.23;2.27;;;;;;;;;;4959407;28;20213;-87
2022/04/09 14:52:56;;;;;;;3.57;1.77;;;;;;;;;;4959876;28;20223;-87
2022/04/09 14:55:24;;;;;;;4.47;1.47;;;;;;;;;;4958812;28;20203;-87
2022/04/09 14:57:53;;;;;;;4.00;2.60;;;;;;;;;;4959992;28;20202;-87